sensor_id;sensor_type;location;lat;lon;timestamp;P1;durP1;ratioP1;P2;durP2;ratioP2
3939;SDS011;1984;48.312;9.244;2023-07-30T00:00:36;2.20;;;2.00;;
3939;SDS011;1984;48.312;9.244;2023-07-30T00:03:01;2.57;;;2.37;;
3939;SDS011;1984;48.312;9.244;2023-07-30T00:05:27;4.80;;;2.60;;
3939;SDS011;1984;48.312;9.244;2023-07-30T00:07:53;4.37;;;2.80;;
3939;SDS011;1984;48.312;9.244;2023-07-30T00:10:19;3.10;;;2.07;;
3939;SDS011;1984;48.312;9.244;2023-07-30T00:12:45;2.77;;;2.57;;
3939;SDS011;1984;48.312;9.244;2023-07-30T00:15:11;2.30;;;2.10;;
3939;SDS011;1984;48.312;9.244;2023-07-30T00:17:38;3.10;;;2.43;;
3939;SDS011;1984;48.312;9.244;2023-07-30T00:20:04;2.60;;;2.40;;
3939;SDS011;1984;48.312;9.244;2023-07-30T00:22:30;3.40;;;2.80;;
3939;SDS011;1984;48.312;9.244;2023-07-30T00:24:56;2.93;;;2.50;;
3939;SDS011;1984;48.312;9.244;2023-07-30T00:27:21;2.73;;;2.43;;
3939;SDS011;1984;48.312;9.244;2023-07-30T00:29:47;2.27;;;2.17;;
3939;SDS011;1984;48.312;9.244;2023-07-30T00:32:12;2.70;;;2.30;;
3939;SDS011;1984;48.312;9.244;2023-07-30T00:34:40;2.70;;;2.50;;
3939;SDS011;1984;48.312;9.244;2023-07-30T00:37:06;2.50;;;2.30;;
3939;SDS011;1984;48.312;9.244;2023-07-30T00:39:31;5.03;;;2.43;;
3939;SDS011;1984;48.312;9.244;2023-07-30T00:41:57;2.53;;;2.33;;
3939;SDS011;1984;48.312;9.244;2023-07-30T00:44:23;2.20;;;2.10;;
3939;SDS011;1984;48.312;9.244;2023-07-30T00:46:48;2.37;;;2.17;;
3939;SDS011;1984;48.312;9.244;2023-07-30T00:49:14;3.13;;;2.20;;
3939;SDS011;1984;48.312;9.244;2023-07-30T00:51:40;4.00;;;2.67;;
3939;SDS011;1984;48.312;9.244;2023-07-30T00:54:06;3.10;;;2.43;;
3939;SDS011;1984;48.312;9.244;2023-07-30T00:56:32;3.10;;;2.50;;
3939;SDS011;1984;48.312;9.244;2023-07-30T00:58:57;1.87;;;1.77;;
3939;SDS011;1984;48.312;9.244;2023-07-30T01:01:23;2.40;;;2.20;;
3939;SDS011;1984;48.312;9.244;2023-07-30T01:03:49;3.63;;;2.53;;
3939;SDS011;1984;48.312;9.244;2023-07-30T01:06:15;2.57;;;2.37;;
3939;SDS011;1984;48.312;9.244;2023-07-30T01:08:41;3.97;;;2.50;;
3939;SDS011;1984;48.312;9.244;2023-07-30T01:11:06;4.97;;;2.03;;
3939;SDS011;1984;48.312;9.244;2023-07-30T01:13:33;2.90;;;2.40;;
3939;SDS011;1984;48.312;9.244;2023-07-30T01:16:00;4.07;;;2.43;;
3939;SDS011;1984;48.312;9.244;2023-07-30T01:18:26;4.40;;;2.60;;
3939;SDS011;1984;48.312;9.244;2023-07-30T01:20:58;4.30;;;2.50;;
3939;SDS011;1984;48.312;9.244;2023-07-30T01:23:24;2.93;;;1.93;;
3939;SDS011;1984;48.312;9.244;2023-07-30T01:25:59;2.30;;;2.10;;
3939;SDS011;1984;48.312;9.244;2023-07-30T01:28:34;2.30;;;2.03;;
3939;SDS011;1984;48.312;9.244;2023-07-30T01:31:03;2.53;;;2.33;;
3939;SDS011;1984;48.312;9.244;2023-07-30T01:33:31;2.60;;;2.40;;
3939;SDS011;1984;48.312;9.244;2023-07-30T01:35:57;3.50;;;2.50;;
3939;SDS011;1984;48.312;9.244;2023-07-30T01:38:24;2.87;;;2.60;;
3939;SDS011;1984;48.312;9.244;2023-07-30T01:40:51;3.03;;;2.53;;
3939;SDS011;1984;48.312;9.244;2023-07-30T01:43:16;5.23;;;2.17;;
3939;SDS011;1984;48.312;9.244;2023-07-30T01:45:42;2.70;;;2.50;;
3939;SDS011;1984;48.312;9.244;2023-07-30T01:48:08;4.90;;;2.47;;
3939;SDS011;1984;48.312;9.244;2023-07-30T01:50:33;2.27;;;2.17;;
3939;SDS011;1984;48.312;9.244;2023-07-30T01:52:59;2.80;;;2.20;;
3939;SDS011;1984;48.312;9.244;2023-07-30T01:55:24;2.43;;;2.23;;
3939;SDS011;1984;48.312;9.244;2023-07-30T01:57:50;3.00;;;2.13;;
3939;SDS011;1984;48.312;9.244;2023-07-30T02:00:15;2.93;;;2.30;;
3939;SDS011;1984;48.312;9.244;2023-07-30T02:02:41;2.63;;;2.43;;
3939;SDS011;1984;48.312;9.244;2023-07-30T02:05:06;3.87;;;2.23;;
3939;SDS011;1984;48.312;9.244;2023-07-30T02:07:32;2.60;;;2.03;;
3939;SDS011;1984;48.312;9.244;2023-07-30T02:09:57;3.07;;;2.17;;
3939;SDS011;1984;48.312;9.244;2023-07-30T02:12:23;3.17;;;2.20;;
3939;SDS011;1984;48.312;9.244;2023-07-30T02:14:48;2.40;;;2.03;;
3939;SDS011;1984;48.312;9.244;2023-07-30T02:17:14;2.27;;;1.93;;
3939;SDS011;1984;48.312;9.244;2023-07-30T02:19:39;2.97;;;2.67;;
3939;SDS011;1984;48.312;9.244;2023-07-30T02:22:05;5.60;;;2.07;;
3939;SDS011;1984;48.312;9.244;2023-07-30T02:24:31;10.93;;;2.50;;
3939;SDS011;1984;48.312;9.244;2023-07-30T02:26:56;3.27;;;2.97;;
3939;SDS011;1984;48.312;9.244;2023-07-30T02:29:22;2.60;;;2.30;;
3939;SDS011;1984;48.312;9.244;2023-07-30T02:34:15;8.00;;;2.33;;
3939;SDS011;1984;48.312;9.244;2023-07-30T02:36:41;2.27;;;2.07;;
3939;SDS011;1984;48.312;9.244;2023-07-30T02:39:06;4.10;;;1.93;;
3939;SDS011;1984;48.312;9.244;2023-07-30T02:41:32;4.33;;;2.00;;
3939;SDS011;1984;48.312;9.244;2023-07-30T02:43:57;2.33;;;2.13;;
3939;SDS011;1984;48.312;9.244;2023-07-30T02:46:23;4.10;;;2.17;;
3939;SDS011;1984;48.312;9.244;2023-07-30T02:48:48;2.30;;;2.10;;
3939;SDS011;1984;48.312;9.244;2023-07-30T02:51:14;2.90;;;2.27;;
3939;SDS011;1984;48.312;9.244;2023-07-30T02:53:39;4.07;;;2.07;;
3939;SDS011;1984;48.312;9.244;2023-07-30T02:56:07;7.13;;;2.43;;
3939;SDS011;1984;48.312;9.244;2023-07-30T02:58:33;2.37;;;2.10;;
3939;SDS011;1984;48.312;9.244;2023-07-30T03:01:05;4.63;;;2.40;;
3939;SDS011;1984;48.312;9.244;2023-07-30T03:03:32;2.67;;;1.80;;
3939;SDS011;1984;48.312;9.244;2023-07-30T03:05:57;1.80;;;1.70;;
3939;SDS011;1984;48.312;9.244;2023-07-30T03:08:23;3.70;;;2.27;;
3939;SDS011;1984;48.312;9.244;2023-07-30T03:10:48;2.43;;;1.93;;
3939;SDS011;1984;48.312;9.244;2023-07-30T03:13:15;2.53;;;2.13;;
3939;SDS011;1984;48.312;9.244;2023-07-30T03:15:41;8.93;;;2.20;;
3939;SDS011;1984;48.312;9.244;2023-07-30T03:18:06;11.73;;;2.40;;
3939;SDS011;1984;48.312;9.244;2023-07-30T03:20:32;1.80;;;1.70;;
3939;SDS011;1984;48.312;9.244;2023-07-30T03:22:57;6.43;;;2.37;;
3939;SDS011;1984;48.312;9.244;2023-07-30T03:25:23;3.33;;;2.00;;
3939;SDS011;1984;48.312;9.244;2023-07-30T03:27:48;2.37;;;1.93;;
3939;SDS011;1984;48.312;9.244;2023-07-30T03:30:14;3.37;;;2.20;;
3939;SDS011;1984;48.312;9.244;2023-07-30T03:32:40;5.80;;;2.00;;
3939;SDS011;1984;48.312;9.244;2023-07-30T03:35:05;2.57;;;2.37;;
3939;SDS011;1984;48.312;9.244;2023-07-30T03:37:31;4.60;;;2.10;;
3939;SDS011;1984;48.312;9.244;2023-07-30T03:39:57;9.70;;;3.07;;
3939;SDS011;1984;48.312;9.244;2023-07-30T03:42:22;2.67;;;2.47;;
3939;SDS011;1984;48.312;9.244;2023-07-30T03:44:48;4.47;;;2.70;;
3939;SDS011;1984;48.312;9.244;2023-07-30T03:47:13;5.70;;;2.47;;
3939;SDS011;1984;48.312;9.244;2023-07-30T03:49:39;2.80;;;2.40;;
3939;SDS011;1984;48.312;9.244;2023-07-30T03:52:04;3.93;;;2.77;;
3939;SDS011;1984;48.312;9.244;2023-07-30T03:54:30;8.23;;;3.30;;
3939;SDS011;1984;48.312;9.244;2023-07-30T03:56:55;3.70;;;3.10;;
3939;SDS011;1984;48.312;9.244;2023-07-30T03:59:21;4.13;;;3.03;;
3939;SDS011;1984;48.312;9.244;2023-07-30T04:01:46;3.07;;;2.60;;
3939;SDS011;1984;48.312;9.244;2023-07-30T04:04:12;6.00;;;3.43;;
3939;SDS011;1984;48.312;9.244;2023-07-30T04:06:38;4.20;;;2.77;;
3939;SDS011;1984;48.312;9.244;2023-07-30T04:09:03;3.63;;;2.83;;
3939;SDS011;1984;48.312;9.244;2023-07-30T04:11:29;2.80;;;2.43;;
3939;SDS011;1984;48.312;9.244;2023-07-30T04:13:54;4.63;;;2.37;;
3939;SDS011;1984;48.312;9.244;2023-07-30T04:16:20;3.13;;;2.80;;
3939;SDS011;1984;48.312;9.244;2023-07-30T04:18:45;2.07;;;1.93;;
3939;SDS011;1984;48.312;9.244;2023-07-30T04:21:11;3.43;;;2.20;;
3939;SDS011;1984;48.312;9.244;2023-07-30T04:23:36;4.10;;;2.20;;
3939;SDS011;1984;48.312;9.244;2023-07-30T04:26:02;2.20;;;1.97;;
3939;SDS011;1984;48.312;9.244;2023-07-30T04:28:27;2.23;;;2.00;;
3939;SDS011;1984;48.312;9.244;2023-07-30T04:30:53;11.67;;;2.93;;
3939;SDS011;1984;48.312;9.244;2023-07-30T04:33:18;5.13;;;3.00;;
3939;SDS011;1984;48.312;9.244;2023-07-30T04:35:44;3.33;;;2.53;;
3939;SDS011;1984;48.312;9.244;2023-07-30T04:38:09;5.10;;;2.80;;
3939;SDS011;1984;48.312;9.244;2023-07-30T04:40:35;2.80;;;2.60;;
3939;SDS011;1984;48.312;9.244;2023-07-30T04:43:00;4.90;;;2.03;;
3939;SDS011;1984;48.312;9.244;2023-07-30T04:45:26;5.00;;;2.47;;
3939;SDS011;1984;48.312;9.244;2023-07-30T04:47:51;2.60;;;2.40;;
3939;SDS011;1984;48.312;9.244;2023-07-30T04:50:17;2.97;;;1.97;;
3939;SDS011;1984;48.312;9.244;2023-07-30T04:52:42;3.33;;;2.93;;
3939;SDS011;1984;48.312;9.244;2023-07-30T04:55:08;2.60;;;2.40;;
3939;SDS011;1984;48.312;9.244;2023-07-30T04:57:34;3.20;;;2.67;;
3939;SDS011;1984;48.312;9.244;2023-07-30T04:59:59;2.93;;;2.63;;
3939;SDS011;1984;48.312;9.244;2023-07-30T05:02:25;2.53;;;2.20;;
3939;SDS011;1984;48.312;9.244;2023-07-30T05:04:50;2.90;;;2.60;;
3939;SDS011;1984;48.312;9.244;2023-07-30T05:07:16;3.07;;;2.40;;
3939;SDS011;1984;48.312;9.244;2023-07-30T05:09:41;3.53;;;2.47;;
3939;SDS011;1984;48.312;9.244;2023-07-30T05:12:07;3.23;;;2.70;;
3939;SDS011;1984;48.312;9.244;2023-07-30T05:14:33;2.93;;;2.63;;
3939;SDS011;1984;48.312;9.244;2023-07-30T05:16:58;3.10;;;2.80;;
3939;SDS011;1984;48.312;9.244;2023-07-30T05:19:24;3.53;;;2.57;;
3939;SDS011;1984;48.312;9.244;2023-07-30T05:21:49;3.23;;;2.77;;
3939;SDS011;1984;48.312;9.244;2023-07-30T05:24:15;2.67;;;2.47;;
3939;SDS011;1984;48.312;9.244;2023-07-30T05:26:40;4.87;;;2.87;;
3939;SDS011;1984;48.312;9.244;2023-07-30T05:29:06;7.63;;;3.10;;
3939;SDS011;1984;48.312;9.244;2023-07-30T05:31:31;2.70;;;2.50;;
3939;SDS011;1984;48.312;9.244;2023-07-30T05:33:57;2.70;;;2.47;;
3939;SDS011;1984;48.312;9.244;2023-07-30T05:36:29;4.00;;;2.20;;
3939;SDS011;1984;48.312;9.244;2023-07-30T05:38:55;2.90;;;2.70;;
3939;SDS011;1984;48.312;9.244;2023-07-30T05:41:20;4.60;;;2.10;;
3939;SDS011;1984;48.312;9.244;2023-07-30T05:43:46;3.00;;;2.60;;
3939;SDS011;1984;48.312;9.244;2023-07-30T05:46:12;3.00;;;2.70;;
3939;SDS011;1984;48.312;9.244;2023-07-30T05:48:38;5.67;;;3.00;;
3939;SDS011;1984;48.312;9.244;2023-07-30T05:51:03;3.87;;;2.93;;
3939;SDS011;1984;48.312;9.244;2023-07-30T05:53:29;3.10;;;2.90;;
3939;SDS011;1984;48.312;9.244;2023-07-30T05:55:54;2.53;;;2.33;;
3939;SDS011;1984;48.312;9.244;2023-07-30T05:58:20;5.20;;;2.93;;
3939;SDS011;1984;48.312;9.244;2023-07-30T06:00:45;3.60;;;2.43;;
3939;SDS011;1984;48.312;9.244;2023-07-30T06:03:11;2.83;;;2.60;;
3939;SDS011;1984;48.312;9.244;2023-07-30T06:05:40;3.40;;;3.10;;
3939;SDS011;1984;48.312;9.244;2023-07-30T06:08:06;4.40;;;2.50;;
3939;SDS011;1984;48.312;9.244;2023-07-30T06:10:36;2.57;;;2.37;;
3939;SDS011;1984;48.312;9.244;2023-07-30T06:13:02;4.43;;;3.07;;
3939;SDS011;1984;48.312;9.244;2023-07-30T06:15:29;3.20;;;2.90;;
3939;SDS011;1984;48.312;9.244;2023-07-30T06:17:55;2.60;;;2.40;;
3939;SDS011;1984;48.312;9.244;2023-07-30T06:20:20;3.47;;;2.57;;
3939;SDS011;1984;48.312;9.244;2023-07-30T06:22:46;3.70;;;2.60;;
3939;SDS011;1984;48.312;9.244;2023-07-30T06:25:12;2.60;;;2.37;;
3939;SDS011;1984;48.312;9.244;2023-07-30T06:27:37;4.73;;;2.23;;
3939;SDS011;1984;48.312;9.244;2023-07-30T06:30:03;2.63;;;2.43;;
3939;SDS011;1984;48.312;9.244;2023-07-30T06:32:29;2.40;;;2.20;;
3939;SDS011;1984;48.312;9.244;2023-07-30T06:34:55;2.20;;;2.00;;
3939;SDS011;1984;48.312;9.244;2023-07-30T06:37:20;3.00;;;2.50;;
3939;SDS011;1984;48.312;9.244;2023-07-30T06:39:46;2.73;;;2.37;;
3939;SDS011;1984;48.312;9.244;2023-07-30T06:42:11;3.73;;;2.40;;
3939;SDS011;1984;48.312;9.244;2023-07-30T06:44:37;2.67;;;2.30;;
3939;SDS011;1984;48.312;9.244;2023-07-30T06:47:02;4.50;;;2.43;;
3939;SDS011;1984;48.312;9.244;2023-07-30T06:49:28;2.23;;;2.03;;
3939;SDS011;1984;48.312;9.244;2023-07-30T06:51:53;5.13;;;2.03;;
3939;SDS011;1984;48.312;9.244;2023-07-30T06:54:20;2.30;;;2.10;;
3939;SDS011;1984;48.312;9.244;2023-07-30T06:56:45;3.10;;;2.37;;
3939;SDS011;1984;48.312;9.244;2023-07-30T06:59:11;2.60;;;2.30;;
3939;SDS011;1984;48.312;9.244;2023-07-30T07:01:37;2.10;;;1.97;;
3939;SDS011;1984;48.312;9.244;2023-07-30T07:04:02;1.70;;;1.60;;
3939;SDS011;1984;48.312;9.244;2023-07-30T07:06:28;2.70;;;2.00;;
3939;SDS011;1984;48.312;9.244;2023-07-30T07:08:53;3.77;;;1.90;;
3939;SDS011;1984;48.312;9.244;2023-07-30T07:11:19;1.90;;;1.80;;
3939;SDS011;1984;48.312;9.244;2023-07-30T07:13:44;1.50;;;1.50;;
3939;SDS011;1984;48.312;9.244;2023-07-30T07:16:10;2.00;;;1.90;;
3939;SDS011;1984;48.312;9.244;2023-07-30T07:18:35;2.07;;;1.97;;
3939;SDS011;1984;48.312;9.244;2023-07-30T07:21:01;1.80;;;1.70;;
3939;SDS011;1984;48.312;9.244;2023-07-30T07:23:27;2.10;;;1.60;;
3939;SDS011;1984;48.312;9.244;2023-07-30T07:25:53;2.20;;;2.00;;
3939;SDS011;1984;48.312;9.244;2023-07-30T07:28:18;4.43;;;2.43;;
3939;SDS011;1984;48.312;9.244;2023-07-30T07:30:44;1.67;;;1.57;;
3939;SDS011;1984;48.312;9.244;2023-07-30T07:33:10;1.80;;;1.70;;
3939;SDS011;1984;48.312;9.244;2023-07-30T07:35:38;2.40;;;1.87;;
3939;SDS011;1984;48.312;9.244;2023-07-30T07:38:04;1.80;;;1.70;;
3939;SDS011;1984;48.312;9.244;2023-07-30T07:40:29;2.10;;;2.00;;
3939;SDS011;1984;48.312;9.244;2023-07-30T07:42:55;1.20;;;1.20;;
3939;SDS011;1984;48.312;9.244;2023-07-30T07:45:20;1.13;;;1.13;;
3939;SDS011;1984;48.312;9.244;2023-07-30T07:47:46;1.50;;;1.30;;
3939;SDS011;1984;48.312;9.244;2023-07-30T07:50:12;1.67;;;1.53;;
3939;SDS011;1984;48.312;9.244;2023-07-30T07:52:37;1.63;;;1.53;;
3939;SDS011;1984;48.312;9.244;2023-07-30T07:55:03;1.27;;;1.20;;
3939;SDS011;1984;48.312;9.244;2023-07-30T07:57:29;2.13;;;1.77;;
3939;SDS011;1984;48.312;9.244;2023-07-30T07:59:56;2.30;;;1.60;;
3939;SDS011;1984;48.312;9.244;2023-07-30T08:02:21;2.93;;;1.43;;
3939;SDS011;1984;48.312;9.244;2023-07-30T08:04:47;1.47;;;1.37;;
3939;SDS011;1984;48.312;9.244;2023-07-30T08:07:13;1.50;;;1.40;;
3939;SDS011;1984;48.312;9.244;2023-07-30T08:09:38;1.53;;;1.40;;
3939;SDS011;1984;48.312;9.244;2023-07-30T08:12:04;2.87;;;1.50;;
3939;SDS011;1984;48.312;9.244;2023-07-30T08:14:30;1.70;;;1.60;;
3939;SDS011;1984;48.312;9.244;2023-07-30T08:16:56;1.23;;;1.13;;
3939;SDS011;1984;48.312;9.244;2023-07-30T08:19:21;1.50;;;1.40;;
3939;SDS011;1984;48.312;9.244;2023-07-30T08:21:47;1.50;;;1.40;;
3939;SDS011;1984;48.312;9.244;2023-07-30T08:24:12;1.40;;;1.30;;
3939;SDS011;1984;48.312;9.244;2023-07-30T08:26:38;1.47;;;1.37;;
3939;SDS011;1984;48.312;9.244;2023-07-30T08:29:03;1.40;;;1.30;;
3939;SDS011;1984;48.312;9.244;2023-07-30T08:31:31;1.87;;;1.40;;
3939;SDS011;1984;48.312;9.244;2023-07-30T08:33:56;2.17;;;1.20;;
3939;SDS011;1984;48.312;9.244;2023-07-30T08:36:22;4.43;;;1.50;;
3939;SDS011;1984;48.312;9.244;2023-07-30T08:38:47;2.23;;;1.60;;
3939;SDS011;1984;48.312;9.244;2023-07-30T08:41:13;7.60;;;1.47;;
3939;SDS011;1984;48.312;9.244;2023-07-30T08:43:39;1.50;;;1.40;;
3939;SDS011;1984;48.312;9.244;2023-07-30T08:46:05;1.50;;;1.40;;
3939;SDS011;1984;48.312;9.244;2023-07-30T08:48:31;3.00;;;1.57;;
3939;SDS011;1984;48.312;9.244;2023-07-30T08:50:57;1.77;;;1.67;;
3939;SDS011;1984;48.312;9.244;2023-07-30T08:53:24;1.60;;;1.50;;
3939;SDS011;1984;48.312;9.244;2023-07-30T08:55:51;1.30;;;1.23;;
3939;SDS011;1984;48.312;9.244;2023-07-30T08:58:19;2.50;;;1.80;;
3939;SDS011;1984;48.312;9.244;2023-07-30T09:00:46;1.70;;;1.60;;
3939;SDS011;1984;48.312;9.244;2023-07-30T09:03:14;1.40;;;1.30;;
3939;SDS011;1984;48.312;9.244;2023-07-30T09:05:42;1.37;;;1.27;;
3939;SDS011;1984;48.312;9.244;2023-07-30T09:08:08;1.50;;;1.40;;
3939;SDS011;1984;48.312;9.244;2023-07-30T09:10:34;1.50;;;1.40;;
3939;SDS011;1984;48.312;9.244;2023-07-30T09:13:01;1.50;;;1.40;;
3939;SDS011;1984;48.312;9.244;2023-07-30T09:15:35;1.70;;;1.60;;
3939;SDS011;1984;48.312;9.244;2023-07-30T09:18:05;1.57;;;1.40;;
3939;SDS011;1984;48.312;9.244;2023-07-30T09:20:37;1.60;;;1.50;;
3939;SDS011;1984;48.312;9.244;2023-07-30T09:23:07;3.37;;;1.70;;
3939;SDS011;1984;48.312;9.244;2023-07-30T09:25:34;1.80;;;1.70;;
3939;SDS011;1984;48.312;9.244;2023-07-30T09:28:01;1.10;;;1.10;;
3939;SDS011;1984;48.312;9.244;2023-07-30T09:30:26;2.57;;;1.70;;
3939;SDS011;1984;48.312;9.244;2023-07-30T09:32:53;2.10;;;2.00;;
3939;SDS011;1984;48.312;9.244;2023-07-30T09:35:21;1.47;;;1.10;;
3939;SDS011;1984;48.312;9.244;2023-07-30T09:37:49;1.23;;;1.17;;
3939;SDS011;1984;48.312;9.244;2023-07-30T09:40:22;2.30;;;1.33;;
3939;SDS011;1984;48.312;9.244;2023-07-30T09:42:57;1.73;;;1.63;;
3939;SDS011;1984;48.312;9.244;2023-07-30T09:45:23;3.60;;;1.43;;
3939;SDS011;1984;48.312;9.244;2023-07-30T09:47:51;1.60;;;1.50;;
3939;SDS011;1984;48.312;9.244;2023-07-30T09:50:18;1.40;;;1.30;;
3939;SDS011;1984;48.312;9.244;2023-07-30T09:52:44;1.47;;;1.37;;
3939;SDS011;1984;48.312;9.244;2023-07-30T09:55:10;8.20;;;1.40;;
3939;SDS011;1984;48.312;9.244;2023-07-30T09:57:36;3.37;;;1.50;;
3939;SDS011;1984;48.312;9.244;2023-07-30T10:00:03;1.30;;;1.20;;
3939;SDS011;1984;48.312;9.244;2023-07-30T10:02:30;2.10;;;1.20;;
3939;SDS011;1984;48.312;9.244;2023-07-30T10:05:01;4.40;;;1.10;;
3939;SDS011;1984;48.312;9.244;2023-07-30T10:07:33;1.23;;;1.13;;
3939;SDS011;1984;48.312;9.244;2023-07-30T10:10:00;2.50;;;1.10;;
3939;SDS011;1984;48.312;9.244;2023-07-30T10:12:30;1.43;;;1.33;;
3939;SDS011;1984;48.312;9.244;2023-07-30T10:15:00;1.47;;;1.37;;
3939;SDS011;1984;48.312;9.244;2023-07-30T10:17:26;1.50;;;1.40;;
3939;SDS011;1984;48.312;9.244;2023-07-30T10:19:53;6.10;;;1.30;;
3939;SDS011;1984;48.312;9.244;2023-07-30T10:22:23;1.50;;;1.40;;
3939;SDS011;1984;48.312;9.244;2023-07-30T10:24:56;1.40;;;1.30;;
3939;SDS011;1984;48.312;9.244;2023-07-30T10:27:24;1.30;;;1.20;;
3939;SDS011;1984;48.312;9.244;2023-07-30T10:35:38;2.03;;;1.50;;
3939;SDS011;1984;48.312;9.244;2023-07-30T10:40:40;1.87;;;1.43;;
3939;SDS011;1984;48.312;9.244;2023-07-30T10:43:18;1.57;;;1.47;;
3939;SDS011;1984;48.312;9.244;2023-07-30T10:45:50;1.40;;;1.30;;
3939;SDS011;1984;48.312;9.244;2023-07-30T10:48:16;1.40;;;1.30;;
3939;SDS011;1984;48.312;9.244;2023-07-30T10:50:42;3.33;;;1.53;;
3939;SDS011;1984;48.312;9.244;2023-07-30T10:53:13;4.77;;;1.80;;
3939;SDS011;1984;48.312;9.244;2023-07-30T10:55:40;1.83;;;1.73;;
3939;SDS011;1984;48.312;9.244;2023-07-30T10:58:06;1.47;;;1.37;;
3939;SDS011;1984;48.312;9.244;2023-07-30T11:00:32;5.87;;;1.80;;
3939;SDS011;1984;48.312;9.244;2023-07-30T11:02:57;1.93;;;1.40;;
3939;SDS011;1984;48.312;9.244;2023-07-30T11:05:23;2.10;;;1.20;;
3939;SDS011;1984;48.312;9.244;2023-07-30T11:07:50;2.43;;;1.50;;
3939;SDS011;1984;48.312;9.244;2023-07-30T11:10:16;2.30;;;1.40;;
3939;SDS011;1984;48.312;9.244;2023-07-30T11:12:42;2.30;;;1.43;;
3939;SDS011;1984;48.312;9.244;2023-07-30T11:15:07;3.00;;;1.93;;
3939;SDS011;1984;48.312;9.244;2023-07-30T11:17:34;1.50;;;1.40;;
3939;SDS011;1984;48.312;9.244;2023-07-30T11:20:00;1.20;;;1.10;;
3939;SDS011;1984;48.312;9.244;2023-07-30T11:22:29;2.30;;;1.40;;
3939;SDS011;1984;48.312;9.244;2023-07-30T11:24:56;1.37;;;1.20;;
3939;SDS011;1984;48.312;9.244;2023-07-30T11:27:22;1.10;;;1.10;;
3939;SDS011;1984;48.312;9.244;2023-07-30T11:29:57;4.30;;;1.50;;
3939;SDS011;1984;48.312;9.244;2023-07-30T11:32:22;1.73;;;1.50;;
3939;SDS011;1984;48.312;9.244;2023-07-30T11:34:54;1.53;;;1.43;;
3939;SDS011;1984;48.312;9.244;2023-07-30T11:37:20;1.60;;;1.50;;
3939;SDS011;1984;48.312;9.244;2023-07-30T11:39:47;2.20;;;1.30;;
3939;SDS011;1984;48.312;9.244;2023-07-30T11:42:13;2.30;;;1.40;;
3939;SDS011;1984;48.312;9.244;2023-07-30T11:44:39;1.90;;;1.67;;
3939;SDS011;1984;48.312;9.244;2023-07-30T11:47:05;1.63;;;1.43;;
3939;SDS011;1984;48.312;9.244;2023-07-30T11:49:32;5.33;;;1.80;;
3939;SDS011;1984;48.312;9.244;2023-07-30T11:52:06;1.40;;;1.30;;
3939;SDS011;1984;48.312;9.244;2023-07-30T11:54:36;2.30;;;1.73;;
3939;SDS011;1984;48.312;9.244;2023-07-30T11:57:02;1.57;;;1.47;;
3939;SDS011;1984;48.312;9.244;2023-07-30T11:59:27;1.50;;;1.40;;
3939;SDS011;1984;48.312;9.244;2023-07-30T12:01:55;8.63;;;1.90;;
3939;SDS011;1984;48.312;9.244;2023-07-30T12:04:20;3.37;;;1.50;;
3939;SDS011;1984;48.312;9.244;2023-07-30T12:06:49;2.73;;;1.67;;
3939;SDS011;1984;48.312;9.244;2023-07-30T12:09:20;1.57;;;1.23;;
3939;SDS011;1984;48.312;9.244;2023-07-30T12:11:49;2.37;;;1.60;;
3939;SDS011;1984;48.312;9.244;2023-07-30T12:14:26;1.40;;;1.30;;
3939;SDS011;1984;48.312;9.244;2023-07-30T12:17:07;1.50;;;1.40;;
3939;SDS011;1984;48.312;9.244;2023-07-30T12:19:33;3.90;;;1.80;;
3939;SDS011;1984;48.312;9.244;2023-07-30T12:22:01;1.40;;;1.30;;
3939;SDS011;1984;48.312;9.244;2023-07-30T12:24:26;1.53;;;1.10;;
3939;SDS011;1984;48.312;9.244;2023-07-30T12:26:52;3.03;;;1.60;;
3939;SDS011;1984;48.312;9.244;2023-07-30T12:29:17;3.63;;;2.03;;
3939;SDS011;1984;48.312;9.244;2023-07-30T12:31:43;1.77;;;1.67;;
3939;SDS011;1984;48.312;9.244;2023-07-30T12:34:10;1.83;;;1.50;;
3939;SDS011;1984;48.312;9.244;2023-07-30T12:36:36;2.27;;;1.50;;
3939;SDS011;1984;48.312;9.244;2023-07-30T12:39:02;2.07;;;1.70;;
3939;SDS011;1984;48.312;9.244;2023-07-30T12:41:28;3.33;;;1.70;;
3939;SDS011;1984;48.312;9.244;2023-07-30T12:43:54;1.83;;;1.40;;
3939;SDS011;1984;48.312;9.244;2023-07-30T12:46:22;1.70;;;1.60;;
3939;SDS011;1984;48.312;9.244;2023-07-30T12:48:48;1.83;;;1.73;;
3939;SDS011;1984;48.312;9.244;2023-07-30T12:51:13;1.60;;;1.50;;
3939;SDS011;1984;48.312;9.244;2023-07-30T12:53:39;1.50;;;1.40;;
3939;SDS011;1984;48.312;9.244;2023-07-30T12:56:05;4.30;;;1.33;;
3939;SDS011;1984;48.312;9.244;2023-07-30T12:58:30;2.00;;;1.50;;
3939;SDS011;1984;48.312;9.244;2023-07-30T13:00:56;1.40;;;1.30;;
3939;SDS011;1984;48.312;9.244;2023-07-30T13:03:21;1.50;;;1.40;;
3939;SDS011;1984;48.312;9.244;2023-07-30T13:05:47;1.53;;;1.43;;
3939;SDS011;1984;48.312;9.244;2023-07-30T13:08:12;5.03;;;2.03;;
3939;SDS011;1984;48.312;9.244;2023-07-30T13:10:38;1.70;;;1.60;;
3939;SDS011;1984;48.312;9.244;2023-07-30T13:13:03;1.50;;;1.40;;
3939;SDS011;1984;48.312;9.244;2023-07-30T13:15:29;1.50;;;1.40;;
3939;SDS011;1984;48.312;9.244;2023-07-30T13:17:55;5.17;;;1.93;;
3939;SDS011;1984;48.312;9.244;2023-07-30T13:20:20;2.40;;;1.90;;
3939;SDS011;1984;48.312;9.244;2023-07-30T13:22:46;1.70;;;1.60;;
3939;SDS011;1984;48.312;9.244;2023-07-30T13:25:11;1.70;;;1.60;;
3939;SDS011;1984;48.312;9.244;2023-07-30T13:27:37;2.13;;;1.93;;
3939;SDS011;1984;48.312;9.244;2023-07-30T13:30:03;1.53;;;1.43;;
3939;SDS011;1984;48.312;9.244;2023-07-30T13:32:29;2.20;;;1.70;;
3939;SDS011;1984;48.312;9.244;2023-07-30T13:34:54;2.90;;;1.53;;
3939;SDS011;1984;48.312;9.244;2023-07-30T13:37:20;1.73;;;1.63;;
3939;SDS011;1984;48.312;9.244;2023-07-30T13:39:45;4.00;;;1.80;;
3939;SDS011;1984;48.312;9.244;2023-07-30T13:42:11;2.27;;;2.07;;
3939;SDS011;1984;48.312;9.244;2023-07-30T13:44:36;2.30;;;2.07;;
3939;SDS011;1984;48.312;9.244;2023-07-30T13:47:02;1.90;;;1.70;;
3939;SDS011;1984;48.312;9.244;2023-07-30T13:49:27;1.70;;;1.60;;
3939;SDS011;1984;48.312;9.244;2023-07-30T13:51:53;1.90;;;1.37;;
3939;SDS011;1984;48.312;9.244;2023-07-30T13:54:18;5.23;;;1.43;;
3939;SDS011;1984;48.312;9.244;2023-07-30T13:56:44;2.43;;;1.60;;
3939;SDS011;1984;48.312;9.244;2023-07-30T13:59:10;2.00;;;1.63;;
3939;SDS011;1984;48.312;9.244;2023-07-30T14:01:35;3.13;;;1.40;;
3939;SDS011;1984;48.312;9.244;2023-07-30T14:04:01;2.10;;;1.90;;
3939;SDS011;1984;48.312;9.244;2023-07-30T14:06:26;4.10;;;1.70;;
3939;SDS011;1984;48.312;9.244;2023-07-30T14:08:52;1.90;;;1.80;;
3939;SDS011;1984;48.312;9.244;2023-07-30T14:11:18;3.40;;;1.60;;
3939;SDS011;1984;48.312;9.244;2023-07-30T14:13:43;2.40;;;1.53;;
3939;SDS011;1984;48.312;9.244;2023-07-30T14:16:09;1.73;;;1.63;;
3939;SDS011;1984;48.312;9.244;2023-07-30T14:18:35;2.60;;;1.63;;
3939;SDS011;1984;48.312;9.244;2023-07-30T14:21:00;3.17;;;2.50;;
3939;SDS011;1984;48.312;9.244;2023-07-30T14:23:27;1.90;;;1.50;;
3939;SDS011;1984;48.312;9.244;2023-07-30T14:25:53;4.73;;;2.33;;
3939;SDS011;1984;48.312;9.244;2023-07-30T14:28:18;3.17;;;1.87;;
3939;SDS011;1984;48.312;9.244;2023-07-30T14:30:44;2.13;;;1.93;;
3939;SDS011;1984;48.312;9.244;2023-07-30T14:33:10;2.00;;;1.80;;
3939;SDS011;1984;48.312;9.244;2023-07-30T14:35:36;4.00;;;1.73;;
3939;SDS011;1984;48.312;9.244;2023-07-30T14:38:03;2.03;;;1.93;;
3939;SDS011;1984;48.312;9.244;2023-07-30T14:40:29;8.00;;;2.27;;
3939;SDS011;1984;48.312;9.244;2023-07-30T14:42:55;1.70;;;1.60;;
3939;SDS011;1984;48.312;9.244;2023-07-30T14:45:21;2.40;;;2.07;;
3939;SDS011;1984;48.312;9.244;2023-07-30T14:47:46;2.23;;;1.87;;
3939;SDS011;1984;48.312;9.244;2023-07-30T14:50:13;4.40;;;2.00;;
3939;SDS011;1984;48.312;9.244;2023-07-30T14:52:38;6.63;;;2.63;;
3939;SDS011;1984;48.312;9.244;2023-07-30T14:55:04;2.40;;;2.17;;
3939;SDS011;1984;48.312;9.244;2023-07-30T14:57:30;5.70;;;1.87;;
3939;SDS011;1984;48.312;9.244;2023-07-30T14:59:57;3.23;;;2.17;;
3939;SDS011;1984;48.312;9.244;2023-07-30T15:02:25;2.33;;;1.90;;
3939;SDS011;1984;48.312;9.244;2023-07-30T15:04:51;6.07;;;2.50;;
3939;SDS011;1984;48.312;9.244;2023-07-30T15:07:17;2.70;;;2.10;;
3939;SDS011;1984;48.312;9.244;2023-07-30T15:09:43;3.50;;;2.20;;
3939;SDS011;1984;48.312;9.244;2023-07-30T15:12:10;4.00;;;2.03;;
3939;SDS011;1984;48.312;9.244;2023-07-30T15:14:36;3.77;;;2.13;;
3939;SDS011;1984;48.312;9.244;2023-07-30T15:17:01;7.60;;;2.37;;
3939;SDS011;1984;48.312;9.244;2023-07-30T15:19:27;1.80;;;1.63;;